Terminal Aerodrome Forecast
Issued by NWS

Home | Current Version | Previous Version | Text Only | Print | Product List | Glossary On
Versions: 1 2 3 4 5 6 7 8 9 10 11 12 13 14 15 16 17 18 19 20 21 22 23 24 25 26 27 28
000
FTUS43 KDMX 111120
TAFFOD
TAF
KFOD 111120Z 1112/1212 17010KT P6SM VCSH SCT035 BKN060
     FM111400 18010G18KT P6SM VCTS SCT035CB BKN060
     FM111800 18010G18KT P6SM SCT040 BKN080
     FM120200 14007KT P6SM VCTS SCT025CB BKN035=

USA.gov is the U.S. government's official web portal to all federal, state and local government web resources and services.